If you wish to contribute or participate in the discussions about articles you are invited to join SKYbrary as a registered user

 Actions

Batna Airport

From SKYbrary Wiki

DABT
Airport
ICAO: DABT – IATA: BLJ
Summary
Name Batna Airport
Region Africa
Territory Algeria DZ.gif
Location , Batna
Serving Batna
Elevation 822.046 m
2,697 ft
2,697 ft822.046 m
Type medium airport
Coordinates 35° 45' 7.58" N, 6° 18' 30.92" E
Runways
Designator Length Width Surface ROPS
5/23 3000 m9,842.52 ft
45 m147.638 ft
ASP yes/yes


METAR
Observation DABT 121100Z 27014KT 9999 FEW023 11/00 Q1019
Station Batna
Date/Time 12 December 2019 11:00:00
Wind direction 270°
Wind speed 14 kts
Lowest cloud amount few clouds
Temperature 11°C
Dew point 0°C
Humidity 46%
QNH 1019 hPa
Weather condition n/a